sensor_id;sensor_type;location;lat;lon;timestamp;pressure;altitude;pressure_sealevel;temperature;humidity
10097;BME280;5087;42.662;23.466;2023-06-10T00:00:00;95016.56;;;14.81;100.00
10097;BME280;5087;42.662;23.466;2023-06-10T00:02:38;94994.56;;;14.45;100.00
10097;BME280;5087;42.662;23.466;2023-06-10T00:05:09;95001.19;;;14.60;100.00
10097;BME280;5087;42.662;23.466;2023-06-10T00:07:36;95026.00;;;14.83;100.00
10097;BME280;5087;42.662;23.466;2023-06-10T00:10:05;95017.63;;;14.76;100.00
10097;BME280;5087;42.662;23.466;2023-06-10T00:12:33;95022.69;;;14.62;100.00
10097;BME280;5087;42.662;23.466;2023-06-10T00:15:04;95024.19;;;14.59;100.00
10097;BME280;5087;42.662;23.466;2023-06-10T00:17:31;95016.69;;;14.56;100.00
10097;BME280;5087;42.662;23.466;2023-06-10T00:19:59;95026.13;;;14.59;100.00
10097;BME280;5087;42.662;23.466;2023-06-10T00:22:31;95023.22;;;14.51;100.00
10097;BME280;5087;42.662;23.466;2023-06-10T00:24:59;95036.34;;;14.46;100.00
10097;BME280;5087;42.662;23.466;2023-06-10T00:27:26;95011.13;;;14.52;100.00
10097;BME280;5087;42.662;23.466;2023-06-10T00:29:56;95017.72;;;14.96;100.00
10097;BME280;5087;42.662;23.466;2023-06-10T00:32:24;95017.38;;;14.81;100.00
10097;BME280;5087;42.662;23.466;2023-06-10T00:34:51;95022.13;;;14.84;100.00
10097;BME280;5087;42.662;23.466;2023-06-10T00:37:18;95016.66;;;14.84;100.00
10097;BME280;5087;42.662;23.466;2023-06-10T00:39:47;95016.81;;;14.92;100.00
10097;BME280;5087;42.662;23.466;2023-06-10T00:42:14;95019.56;;;14.92;100.00
10097;BME280;5087;42.662;23.466;2023-06-10T00:44:41;95025.91;;;14.96;100.00
10097;BME280;5087;42.662;23.466;2023-06-10T00:47:09;95020.53;;;14.99;100.00
10097;BME280;5087;42.662;23.466;2023-06-10T00:49:37;95017.44;;;15.01;100.00
10097;BME280;5087;42.662;23.466;2023-06-10T00:52:07;94999.09;;;14.85;100.00
10097;BME280;5087;42.662;23.466;2023-06-10T00:54:36;95015.69;;;15.09;100.00
10097;BME280;5087;42.662;23.466;2023-06-10T00:57:05;94984.75;;;14.88;100.00
10097;BME280;5087;42.662;23.466;2023-06-10T00:59:34;95006.22;;;15.06;100.00
10097;BME280;5087;42.662;23.466;2023-06-10T01:02:03;95000.59;;;14.99;100.00
10097;BME280;5087;42.662;23.466;2023-06-10T01:04:30;95015.19;;;15.23;100.00
10097;BME280;5087;42.662;23.466;2023-06-10T01:07:12;95018.53;;;15.32;100.00
10097;BME280;5087;42.662;23.466;2023-06-10T01:09:46;95020.13;;;15.33;100.00
10097;BME280;5087;42.662;23.466;2023-06-10T01:12:20;95023.47;;;15.42;100.00
10097;BME280;5087;42.662;23.466;2023-06-10T01:14:50;95016.34;;;15.57;100.00
10097;BME280;5087;42.662;23.466;2023-06-10T01:17:18;95024.66;;;15.61;100.00
10097;BME280;5087;42.662;23.466;2023-06-10T01:19:53;95021.91;;;15.61;100.00
10097;BME280;5087;42.662;23.466;2023-06-10T01:22:24;94994.97;;;15.43;100.00
10097;BME280;5087;42.662;23.466;2023-06-10T01:24:54;95020.47;;;15.67;100.00
10097;BME280;5087;42.662;23.466;2023-06-10T01:27:26;95014.16;;;15.63;100.00
10097;BME280;5087;42.662;23.466;2023-06-10T01:29:59;94975.94;;;15.31;100.00
10097;BME280;5087;42.662;23.466;2023-06-10T01:32:33;95016.03;;;15.59;100.00
10097;BME280;5087;42.662;23.466;2023-06-10T01:35:02;95014.50;;;15.61;100.00
10097;BME280;5087;42.662;23.466;2023-06-10T01:37:31;95020.47;;;15.67;100.00
10097;BME280;5087;42.662;23.466;2023-06-10T01:40:02;95019.47;;;15.75;100.00
10097;BME280;5087;42.662;23.466;2023-06-10T01:42:32;95017.53;;;15.76;100.00
10097;BME280;5087;42.662;23.466;2023-06-10T01:44:59;95025.38;;;15.77;100.00
10097;BME280;5087;42.662;23.466;2023-06-10T01:47:26;95008.59;;;15.79;100.00
10097;BME280;5087;42.662;23.466;2023-06-10T01:49:53;95015.13;;;15.90;100.00
10097;BME280;5087;42.662;23.466;2023-06-10T01:52:20;95000.22;;;15.88;100.00
10097;BME280;5087;42.662;23.466;2023-06-10T01:54:49;95015.34;;;16.01;100.00
10097;BME280;5087;42.662;23.466;2023-06-10T01:57:16;95013.06;;;16.03;100.00
10097;BME280;5087;42.662;23.466;2023-06-10T01:59:43;95008.50;;;16.11;100.00
10097;BME280;5087;42.662;23.466;2023-06-10T02:02:11;94991.00;;;15.96;100.00
10097;BME280;5087;42.662;23.466;2023-06-10T02:04:39;95003.38;;;16.09;100.00
10097;BME280;5087;42.662;23.466;2023-06-10T02:07:06;95004.75;;;16.19;100.00
10097;BME280;5087;42.662;23.466;2023-06-10T02:09:33;94980.19;;;16.03;100.00
10097;BME280;5087;42.662;23.466;2023-06-10T02:12:03;94994.94;;;16.18;100.00
10097;BME280;5087;42.662;23.466;2023-06-10T02:14:33;95006.56;;;16.11;100.00
10097;BME280;5087;42.662;23.466;2023-06-10T02:17:01;95002.63;;;16.32;100.00
10097;BME280;5087;42.662;23.466;2023-06-10T02:19:28;94994.13;;;16.37;100.00
10097;BME280;5087;42.662;23.466;2023-06-10T02:21:56;94981.56;;;16.36;100.00
10097;BME280;5087;42.662;23.466;2023-06-10T02:24:26;94999.00;;;16.48;100.00
10097;BME280;5087;42.662;23.466;2023-06-10T02:26:53;94991.25;;;16.30;100.00
10097;BME280;5087;42.662;23.466;2023-06-10T02:29:23;94990.53;;;16.33;100.00
10097;BME280;5087;42.662;23.466;2023-06-10T02:31:52;94982.31;;;16.33;100.00
10097;BME280;5087;42.662;23.466;2023-06-10T02:34:19;94990.09;;;16.31;100.00
10097;BME280;5087;42.662;23.466;2023-06-10T02:36:47;94990.53;;;16.13;100.00
10097;BME280;5087;42.662;23.466;2023-06-10T02:39:19;94985.22;;;16.01;100.00
10097;BME280;5087;42.662;23.466;2023-06-10T02:41:46;94976.69;;;15.67;100.00
10097;BME280;5087;42.662;23.466;2023-06-10T02:44:16;94974.09;;;15.35;100.00
10097;BME280;5087;42.662;23.466;2023-06-10T02:46:46;94970.75;;;15.26;100.00
10097;BME280;5087;42.662;23.466;2023-06-10T02:49:14;94989.13;;;15.09;100.00
10097;BME280;5087;42.662;23.466;2023-06-10T02:51:42;94976.09;;;14.86;100.00
10097;BME280;5087;42.662;23.466;2023-06-10T02:54:09;94983.78;;;14.81;100.00
10097;BME280;5087;42.662;23.466;2023-06-10T02:56:36;94976.47;;;14.69;100.00
10097;BME280;5087;42.662;23.466;2023-06-10T02:59:11;94980.78;;;14.70;100.00
10097;BME280;5087;42.662;23.466;2023-06-10T03:01:38;94982.53;;;14.78;100.00
10097;BME280;5087;42.662;23.466;2023-06-10T03:04:10;94983.69;;;14.77;100.00
10097;BME280;5087;42.662;23.466;2023-06-10T03:06:44;94975.75;;;14.72;100.00
10097;BME280;5087;42.662;23.466;2023-06-10T03:09:20;94974.53;;;14.69;100.00
10097;BME280;5087;42.662;23.466;2023-06-10T03:11:51;94985.59;;;14.61;100.00
10097;BME280;5087;42.662;23.466;2023-06-10T03:14:18;94986.47;;;14.49;100.00
10097;BME280;5087;42.662;23.466;2023-06-10T03:16:45;94989.81;;;14.42;100.00
10097;BME280;5087;42.662;23.466;2023-06-10T03:19:15;94992.56;;;14.42;100.00
10097;BME280;5087;42.662;23.466;2023-06-10T03:21:58;94996.25;;;14.50;100.00
10097;BME280;5087;42.662;23.466;2023-06-10T03:24:35;94992.38;;;14.35;100.00
10097;BME280;5087;42.662;23.466;2023-06-10T03:27:07;95001.25;;;14.32;100.00
10097;BME280;5087;42.662;23.466;2023-06-10T03:29:37;95004.25;;;14.27;100.00
10097;BME280;5087;42.662;23.466;2023-06-10T03:32:06;95005.03;;;14.27;100.00
10097;BME280;5087;42.662;23.466;2023-06-10T03:34:36;95002.66;;;14.25;100.00
10097;BME280;5087;42.662;23.466;2023-06-10T03:37:04;95008.03;;;14.22;100.00
10097;BME280;5087;42.662;23.466;2023-06-10T03:39:32;95018.03;;;14.18;100.00
10097;BME280;5087;42.662;23.466;2023-06-10T03:42:01;95016.78;;;14.15;100.00
10097;BME280;5087;42.662;23.466;2023-06-10T03:44:30;95024.75;;;14.20;100.00
10097;BME280;5087;42.662;23.466;2023-06-10T03:46:57;95020.44;;;14.19;100.00
10097;BME280;5087;42.662;23.466;2023-06-10T03:49:29;94987.78;;;13.95;100.00
10097;BME280;5087;42.662;23.466;2023-06-10T03:52:01;95019.53;;;14.15;100.00
10097;BME280;5087;42.662;23.466;2023-06-10T03:54:29;95019.03;;;14.25;100.00
10097;BME280;5087;42.662;23.466;2023-06-10T03:56:57;95017.28;;;14.33;100.00
10097;BME280;5087;42.662;23.466;2023-06-10T03:59:28;95009.09;;;14.33;100.00
10097;BME280;5087;42.662;23.466;2023-06-10T04:01:55;95018.38;;;14.61;100.00
10097;BME280;5087;42.662;23.466;2023-06-10T04:04:23;95020.91;;;14.37;100.00
10097;BME280;5087;42.662;23.466;2023-06-10T04:06:50;95024.28;;;14.47;100.00
10097;BME280;5087;42.662;23.466;2023-06-10T04:09:20;95012.16;;;14.32;100.00
10097;BME280;5087;42.662;23.466;2023-06-10T04:11:47;95012.03;;;14.40;100.00
10097;BME280;5087;42.662;23.466;2023-06-10T04:14:15;95004.34;;;14.30;100.00
10097;BME280;5087;42.662;23.466;2023-06-10T04:16:43;95022.41;;;14.35;100.00
10097;BME280;5087;42.662;23.466;2023-06-10T04:19:11;95021.00;;;14.41;100.00
10097;BME280;5087;42.662;23.466;2023-06-10T04:21:39;95032.97;;;14.36;100.00
10097;BME280;5087;42.662;23.466;2023-06-10T04:24:06;95020.63;;;14.27;100.00
10097;BME280;5087;42.662;23.466;2023-06-10T04:26:38;95019.22;;;14.33;100.00
10097;BME280;5087;42.662;23.466;2023-06-10T04:29:07;95036.44;;;14.49;100.00
10097;BME280;5087;42.662;23.466;2023-06-10T04:31:34;95034.97;;;14.68;100.00
10097;BME280;5087;42.662;23.466;2023-06-10T04:34:01;95030.69;;;14.67;100.00
10097;BME280;5087;42.662;23.466;2023-06-10T04:36:29;95034.19;;;14.67;100.00
10097;BME280;5087;42.662;23.466;2023-06-10T04:38:56;95026.81;;;14.84;100.00
10097;BME280;5087;42.662;23.466;2023-06-10T04:41:23;95014.72;;;14.85;100.00
10097;BME280;5087;42.662;23.466;2023-06-10T05:01:08;95022.66;;;15.77;100.00
10097;BME280;5087;42.662;23.466;2023-06-10T05:03:36;95006.09;;;15.70;100.00
10097;BME280;5087;42.662;23.466;2023-06-10T05:06:03;94999.69;;;15.62;100.00
10097;BME280;5087;42.662;23.466;2023-06-10T05:08:31;95009.97;;;15.69;100.00
10097;BME280;5087;42.662;23.466;2023-06-10T05:10:58;95008.53;;;15.75;100.00
10097;BME280;5087;42.662;23.466;2023-06-10T05:13:32;95008.81;;;15.70;100.00
10097;BME280;5087;42.662;23.466;2023-06-10T05:16:03;94996.28;;;15.85;100.00
10097;BME280;5087;42.662;23.466;2023-06-10T05:18:34;95014.91;;;15.99;100.00
10097;BME280;5087;42.662;23.466;2023-06-10T05:21:05;95017.84;;;16.10;100.00
10097;BME280;5087;42.662;23.466;2023-06-10T05:23:36;95010.16;;;16.16;100.00
10097;BME280;5087;42.662;23.466;2023-06-10T05:26:09;94975.44;;;16.00;100.00
10097;BME280;5087;42.662;23.466;2023-06-10T05:28:39;94998.94;;;16.44;100.00
10097;BME280;5087;42.662;23.466;2023-06-10T05:31:12;94958.19;;;16.19;100.00
10097;BME280;5087;42.662;23.466;2023-06-10T05:33:48;94969.56;;;16.21;100.00
10097;BME280;5087;42.662;23.466;2023-06-10T05:36:30;95006.31;;;16.63;100.00
10097;BME280;5087;42.662;23.466;2023-06-10T05:39:01;95005.09;;;16.84;100.00
10097;BME280;5087;42.662;23.466;2023-06-10T05:41:33;95003.38;;;16.95;100.00
10097;BME280;5087;42.662;23.466;2023-06-10T05:44:03;94978.69;;;16.95;100.00
10097;BME280;5087;42.662;23.466;2023-06-10T05:46:32;94970.25;;;17.07;100.00
10097;BME280;5087;42.662;23.466;2023-06-10T05:49:06;94982.81;;;17.35;100.00
10097;BME280;5087;42.662;23.466;2023-06-10T05:51:34;95000.66;;;17.49;100.00
10097;BME280;5087;42.662;23.466;2023-06-10T05:54:02;94972.16;;;17.30;100.00
10097;BME280;5087;42.662;23.466;2023-06-10T05:56:33;95009.41;;;17.58;100.00
10097;BME280;5087;42.662;23.466;2023-06-10T05:59:00;94996.41;;;17.85;100.00
10097;BME280;5087;42.662;23.466;2023-06-10T06:01:27;95016.81;;;18.15;100.00
10097;BME280;5087;42.662;23.466;2023-06-10T06:03:55;95006.13;;;18.44;100.00
10097;BME280;5087;42.662;23.466;2023-06-10T06:06:23;94980.41;;;17.61;100.00
10097;BME280;5087;42.662;23.466;2023-06-10T06:08:53;95017.69;;;17.92;100.00
10097;BME280;5087;42.662;23.466;2023-06-10T06:11:21;95015.53;;;17.48;100.00
10097;BME280;5087;42.662;23.466;2023-06-10T06:13:48;95001.31;;;17.69;100.00
10097;BME280;5087;42.662;23.466;2023-06-10T06:16:16;95014.66;;;18.01;100.00
10097;BME280;5087;42.662;23.466;2023-06-10T06:18:47;94987.59;;;18.33;100.00
10097;BME280;5087;42.662;23.466;2023-06-10T06:21:17;95002.41;;;18.66;100.00
10097;BME280;5087;42.662;23.466;2023-06-10T06:23:46;94976.63;;;18.37;100.00
10097;BME280;5087;42.662;23.466;2023-06-10T06:26:13;94999.75;;;18.74;100.00
10097;BME280;5087;42.662;23.466;2023-06-10T06:28:41;95010.00;;;18.39;100.00
10097;BME280;5087;42.662;23.466;2023-06-10T06:31:09;94991.50;;;18.74;100.00
10097;BME280;5087;42.662;23.466;2023-06-10T06:33:40;94997.06;;;19.26;100.00
10097;BME280;5087;42.662;23.466;2023-06-10T06:36:07;94984.44;;;19.21;100.00
10097;BME280;5087;42.662;23.466;2023-06-10T06:38:34;94971.19;;;18.89;100.00
10097;BME280;5087;42.662;23.466;2023-06-10T06:41:06;94994.81;;;19.42;100.00
10097;BME280;5087;42.662;23.466;2023-06-10T06:43:34;94977.94;;;19.51;100.00
10097;BME280;5087;42.662;23.466;2023-06-10T06:46:21;94986.25;;;19.58;100.00
10097;BME280;5087;42.662;23.466;2023-06-10T06:48:49;94954.72;;;19.45;100.00
10097;BME280;5087;42.662;23.466;2023-06-10T06:51:16;94990.53;;;19.52;100.00
10097;BME280;5087;42.662;23.466;2023-06-10T06:53:43;94968.34;;;19.86;100.00
10097;BME280;5087;42.662;23.466;2023-06-10T06:56:13;94973.91;;;20.01;100.00
10097;BME280;5087;42.662;23.466;2023-06-10T06:58:41;94944.34;;;19.90;100.00
10097;BME280;5087;42.662;23.466;2023-06-10T07:01:08;94983.16;;;19.67;100.00
10097;BME280;5087;42.662;23.466;2023-06-10T07:03:35;94981.06;;;20.27;100.00
10097;BME280;5087;42.662;23.466;2023-06-10T07:06:03;94939.75;;;20.42;100.00
10097;BME280;5087;42.662;23.466;2023-06-10T07:08:31;94985.75;;;20.23;100.00
10097;BME280;5087;42.662;23.466;2023-06-10T07:10:58;94973.66;;;20.49;100.00
10097;BME280;5087;42.662;23.466;2023-06-10T07:13:26;94977.19;;;19.54;100.00
10097;BME280;5087;42.662;23.466;2023-06-10T07:15:53;94982.16;;;20.01;100.00
10097;BME280;5087;42.662;23.466;2023-06-10T07:18:21;94969.31;;;20.59;100.00
10097;BME280;5087;42.662;23.466;2023-06-10T07:20:48;94966.91;;;20.39;100.00
10097;BME280;5087;42.662;23.466;2023-06-10T07:23:15;94957.41;;;20.15;100.00
10097;BME280;5087;42.662;23.466;2023-06-10T07:25:45;94940.97;;;20.73;100.00
10097;BME280;5087;42.662;23.466;2023-06-10T07:28:12;94957.94;;;20.82;100.00
10097;BME280;5087;42.662;23.466;2023-06-10T07:30:42;94948.88;;;21.14;100.00
10097;BME280;5087;42.662;23.466;2023-06-10T07:33:09;94964.22;;;21.30;100.00
10097;BME280;5087;42.662;23.466;2023-06-10T07:35:36;94954.41;;;21.07;100.00
10097;BME280;5087;42.662;23.466;2023-06-10T07:38:04;94959.88;;;21.29;100.00
10097;BME280;5087;42.662;23.466;2023-06-10T07:40:31;94957.91;;;21.37;100.00
10097;BME280;5087;42.662;23.466;2023-06-10T07:42:58;94923.63;;;21.12;100.00
10097;BME280;5087;42.662;23.466;2023-06-10T07:45:26;94949.22;;;21.45;100.00
10097;BME280;5087;42.662;23.466;2023-06-10T07:47:55;94959.78;;;21.90;100.00
10097;BME280;5087;42.662;23.466;2023-06-10T07:50:22;94941.72;;;21.39;100.00
10097;BME280;5087;42.662;23.466;2023-06-10T07:52:49;94939.19;;;22.02;100.00
10097;BME280;5087;42.662;23.466;2023-06-10T07:55:17;94918.16;;;22.19;100.00
10097;BME280;5087;42.662;23.466;2023-06-10T07:57:44;94940.16;;;21.41;100.00
10097;BME280;5087;42.662;23.466;2023-06-10T08:00:12;94949.66;;;20.90;100.00
10097;BME280;5087;42.662;23.466;2023-06-10T08:02:39;94959.91;;;20.85;100.00
10097;BME280;5087;42.662;23.466;2023-06-10T08:05:08;94950.78;;;20.52;100.00
10097;BME280;5087;42.662;23.466;2023-06-10T08:07:35;94922.75;;;20.07;100.00
10097;BME280;5087;42.662;23.466;2023-06-10T08:10:03;94945.63;;;21.70;100.00
10097;BME280;5087;42.662;23.466;2023-06-10T08:12:32;94940.59;;;22.36;100.00
10097;BME280;5087;42.662;23.466;2023-06-10T08:14:59;94931.09;;;22.44;100.00
10097;BME280;5087;42.662;23.466;2023-06-10T08:17:26;94934.44;;;22.03;100.00
10097;BME280;5087;42.662;23.466;2023-06-10T08:19:54;94893.28;;;22.23;100.00
10097;BME280;5087;42.662;23.466;2023-06-10T08:22:22;94904.13;;;23.04;100.00
10097;BME280;5087;42.662;23.466;2023-06-10T08:24:50;94922.22;;;23.93;100.00
10097;BME280;5087;42.662;23.466;2023-06-10T08:27:20;94934.22;;;23.48;100.00
10097;BME280;5087;42.662;23.466;2023-06-10T08:29:47;94894.00;;;23.32;100.00
10097;BME280;5087;42.662;23.466;2023-06-10T08:32:17;94911.56;;;24.22;100.00
10097;BME280;5087;42.662;23.466;2023-06-10T08:34:44;94905.06;;;24.60;100.00
10097;BME280;5087;42.662;23.466;2023-06-10T08:37:11;94901.56;;;24.56;100.00
10097;BME280;5087;42.662;23.466;2023-06-10T08:39:40;94883.81;;;23.91;100.00
10097;BME280;5087;42.662;23.466;2023-06-10T08:42:13;94896.41;;;24.30;100.00
10097;BME280;5087;42.662;23.466;2023-06-10T08:44:46;94911.56;;;23.57;100.00
10097;BME280;5087;42.662;23.466;2023-06-10T08:47:14;94855.78;;;22.74;100.00
10097;BME280;5087;42.662;23.466;2023-06-10T08:49:44;94918.38;;;22.54;100.00
10097;BME280;5087;42.662;23.466;2023-06-10T08:52:15;94885.16;;;23.45;100.00
10097;BME280;5087;42.662;23.466;2023-06-10T08:54:49;94880.13;;;24.32;100.00
10097;BME280;5087;42.662;23.466;2023-06-10T08:57:19;94890.84;;;25.29;100.00
10097;BME280;5087;42.662;23.466;2023-06-10T08:59:48;94881.16;;;25.61;98.01
10097;BME280;5087;42.662;23.466;2023-06-10T09:02:15;94868.81;;;24.74;99.79
10097;BME280;5087;42.662;23.466;2023-06-10T09:04:46;94886.44;;;24.88;100.00
10097;BME280;5087;42.662;23.466;2023-06-10T09:07:15;94889.22;;;24.60;96.85
10097;BME280;5087;42.662;23.466;2023-06-10T09:09:46;94881.03;;;25.24;88.49
10097;BME280;5087;42.662;23.466;2023-06-10T09:12:17;94891.88;;;24.13;98.97
10097;BME280;5087;42.662;23.466;2023-06-10T09:14:47;94869.31;;;23.80;100.00
10097;BME280;5087;42.662;23.466;2023-06-10T09:17:16;94875.50;;;25.24;93.19
10097;BME280;5087;42.662;23.466;2023-06-10T09:19:44;94874.75;;;26.74;83.09
10097;BME280;5087;42.662;23.466;2023-06-10T09:22:19;94870.28;;;24.79;96.05
10097;BME280;5087;42.662;23.466;2023-06-10T09:25:07;94876.41;;;23.81;100.00
10097;BME280;5087;42.662;23.466;2023-06-10T09:27:44;94888.34;;;22.56;100.00
10097;BME280;5087;42.662;23.466;2023-06-10T09:30:25;94861.16;;;23.65;100.00
10097;BME280;5087;42.662;23.466;2023-06-10T09:32:53;94869.94;;;23.26;100.00
10097;BME280;5087;42.662;23.466;2023-06-10T09:35:23;94868.88;;;23.85;100.00
10097;BME280;5087;42.662;23.466;2023-06-10T09:38:06;94864.22;;;24.37;94.80
10097;BME280;5087;42.662;23.466;2023-06-10T09:40:48;94869.97;;;24.22;100.00
10097;BME280;5087;42.662;23.466;2023-06-10T09:43:22;94863.84;;;24.34;100.00
10097;BME280;5087;42.662;23.466;2023-06-10T09:45:50;94865.44;;;24.05;98.30
10097;BME280;5087;42.662;23.466;2023-06-10T09:48:23;94863.66;;;24.73;97.13
10097;BME280;5087;42.662;23.466;2023-06-10T09:50:54;94862.84;;;24.21;100.00
10097;BME280;5087;42.662;23.466;2023-06-10T09:53:22;94857.19;;;24.28;100.00
10097;BME280;5087;42.662;23.466;2023-06-10T09:55:58;94849.69;;;24.29;100.00
10097;BME280;5087;42.662;23.466;2023-06-10T09:58:35;94853.41;;;25.17;96.92
10097;BME280;5087;42.662;23.466;2023-06-10T10:01:08;94858.06;;;25.84;94.89
10097;BME280;5087;42.662;23.466;2023-06-10T10:03:45;94847.38;;;24.75;96.62
10097;BME280;5087;42.662;23.466;2023-06-10T10:06:15;94836.28;;;24.99;100.00
10097;BME280;5087;42.662;23.466;2023-06-10T10:08:43;94821.38;;;23.83;100.00
10097;BME280;5087;42.662;23.466;2023-06-10T10:11:13;94822.88;;;25.13;100.00
10097;BME280;5087;42.662;23.466;2023-06-10T10:13:45;94832.72;;;24.74;96.03
10097;BME280;5087;42.662;23.466;2023-06-10T10:16:17;94834.72;;;24.74;96.29
10097;BME280;5087;42.662;23.466;2023-06-10T10:18:54;94830.31;;;25.20;93.96
10097;BME280;5087;42.662;23.466;2023-06-10T10:21:24;94825.03;;;24.58;98.40
10097;BME280;5087;42.662;23.466;2023-06-10T10:23:58;94827.00;;;24.85;100.00
10097;BME280;5087;42.662;23.466;2023-06-10T10:26:31;94823.56;;;25.82;92.49
10097;BME280;5087;42.662;23.466;2023-06-10T10:29:08;94817.91;;;25.05;93.29
10097;BME280;5087;42.662;23.466;2023-06-10T10:31:38;94820.41;;;25.19;92.75
10097;BME280;5087;42.662;23.466;2023-06-10T10:34:07;94815.84;;;25.89;92.22
10097;BME280;5087;42.662;23.466;2023-06-10T10:36:36;94801.03;;;25.36;92.69
10097;BME280;5087;42.662;23.466;2023-06-10T10:39:08;94821.16;;;26.20;90.89
10097;BME280;5087;42.662;23.466;2023-06-10T10:41:38;94805.38;;;25.17;89.22
10097;BME280;5087;42.662;23.466;2023-06-10T10:44:06;94809.25;;;25.43;84.99
10097;BME280;5087;42.662;23.466;2023-06-10T10:46:42;94812.47;;;25.41;86.44
10097;BME280;5087;42.662;23.466;2023-06-10T10:49:12;94809.69;;;25.98;85.34
10097;BME280;5087;42.662;23.466;2023-06-10T10:51:56;94801.41;;;26.64;78.21
10097;BME280;5087;42.662;23.466;2023-06-10T10:54:31;94783.34;;;27.48;75.77
10097;BME280;5087;42.662;23.466;2023-06-10T10:57:13;94793.16;;;28.21;69.48
10097;BME280;5087;42.662;23.466;2023-06-10T10:59:55;94783.59;;;26.78;70.06
10097;BME280;5087;42.662;23.466;2023-06-10T11:02:40;94782.50;;;26.06;74.36
10097;BME280;5087;42.662;23.466;2023-06-10T11:05:09;94793.34;;;25.03;85.42
10097;BME280;5087;42.662;23.466;2023-06-10T11:07:37;94781.31;;;25.10;82.19
10097;BME280;5087;42.662;23.466;2023-06-10T11:10:09;94768.69;;;24.85;86.34
10097;BME280;5087;42.662;23.466;2023-06-10T11:12:51;94772.13;;;25.13;80.55
10097;BME280;5087;42.662;23.466;2023-06-10T11:15:23;94773.06;;;26.36;79.32
10097;BME280;5087;42.662;23.466;2023-06-10T11:18:21;94767.50;;;26.53;72.25
10097;BME280;5087;42.662;23.466;2023-06-10T11:20:57;94761.88;;;26.23;68.93
10097;BME280;5087;42.662;23.466;2023-06-10T11:23:38;94754.38;;;26.20;66.51
10097;BME280;5087;42.662;23.466;2023-06-10T11:26:31;94738.84;;;27.70;66.24
10097;BME280;5087;42.662;23.466;2023-06-10T11:29:06;94754.41;;;25.47;71.86
10097;BME280;5087;42.662;23.466;2023-06-10T11:31:45;94751.97;;;26.39;69.83
10097;BME280;5087;42.662;23.466;2023-06-10T11:34:21;94743.78;;;25.22;74.52
10097;BME280;5087;42.662;23.466;2023-06-10T11:36:51;94731.59;;;26.42;72.03
10097;BME280;5087;42.662;23.466;2023-06-10T11:39:20;94731.63;;;27.86;68.38
10097;BME280;5087;42.662;23.466;2023-06-10T11:41:50;94737.88;;;27.22;65.14
10097;BME280;5087;42.662;23.466;2023-06-10T11:44:20;94732.94;;;26.83;63.48
10097;BME280;5087;42.662;23.466;2023-06-10T11:46:48;94734.19;;;26.00;65.05
10097;BME280;5087;42.662;23.466;2023-06-10T11:49:17;94718.53;;;26.55;64.92
10097;BME280;5087;42.662;23.466;2023-06-10T11:51:44;94710.56;;;26.25;65.42
10097;BME280;5087;42.662;23.466;2023-06-10T11:54:18;94715.81;;;26.68;66.64
10097;BME280;5087;42.662;23.466;2023-06-10T11:56:46;94726.75;;;26.30;64.45
10097;BME280;5087;42.662;23.466;2023-06-10T11:59:15;94719.78;;;25.68;66.78
10097;BME280;5087;42.662;23.466;2023-06-10T12:01:44;94729.78;;;26.19;64.11
10097;BME280;5087;42.662;23.466;2023-06-10T12:04:13;94724.53;;;25.31;63.92
10097;BME280;5087;42.662;23.466;2023-06-10T12:06:44;94715.16;;;25.25;66.19
10097;BME280;5087;42.662;23.466;2023-06-10T12:09:18;94716.91;;;26.71;64.57
10097;BME280;5087;42.662;23.466;2023-06-10T12:11:48;94718.91;;;26.25;65.15
10097;BME280;5087;42.662;23.466;2023-06-10T12:14:16;94716.59;;;25.70;65.10
10097;BME280;5087;42.662;23.466;2023-06-10T12:17:05;94718.69;;;25.82;68.22
10097;BME280;5087;42.662;23.466;2023-06-10T12:19:38;94715.84;;;26.02;69.31
10097;BME280;5087;42.662;23.466;2023-06-10T12:22:05;94714.97;;;25.89;67.81
10097;BME280;5087;42.662;23.466;2023-06-10T12:24:33;94721.78;;;25.51;70.67
10097;BME280;5087;42.662;23.466;2023-06-10T12:27:01;94709.38;;;26.09;68.21
10097;BME280;5087;42.662;23.466;2023-06-10T12:29:28;94708.84;;;26.31;69.56
10097;BME280;5087;42.662;23.466;2023-06-10T12:31:57;94703.03;;;27.00;70.32
10097;BME280;5087;42.662;23.466;2023-06-10T12:34:31;94688.22;;;25.95;66.06
10097;BME280;5087;42.662;23.466;2023-06-10T12:36:59;94708.88;;;25.94;70.51
10097;BME280;5087;42.662;23.466;2023-06-10T12:39:26;94707.38;;;25.73;77.50
10097;BME280;5087;42.662;23.466;2023-06-10T12:41:54;94703.53;;;25.50;83.36
10097;BME280;5087;42.662;23.466;2023-06-10T12:44:32;94702.47;;;25.04;83.47
10097;BME280;5087;42.662;23.466;2023-06-10T12:47:01;94674.31;;;24.85;83.50
10097;BME280;5087;42.662;23.466;2023-06-10T12:49:35;94693.53;;;24.52;83.96
10097;BME280;5087;42.662;23.466;2023-06-10T12:52:03;94678.78;;;24.79;85.41
10097;BME280;5087;42.662;23.466;2023-06-10T12:54:31;94693.69;;;25.25;80.56
10097;BME280;5087;42.662;23.466;2023-06-10T12:56:58;94692.31;;;25.17;78.52
10097;BME280;5087;42.662;23.466;2023-06-10T12:59:26;94696.63;;;25.75;77.24
10097;BME280;5087;42.662;23.466;2023-06-10T13:01:54;94702.03;;;25.46;77.81
10097;BME280;5087;42.662;23.466;2023-06-10T13:04:22;94684.38;;;25.36;80.91
10097;BME280;5087;42.662;23.466;2023-06-10T13:06:50;94696.09;;;25.80;77.61
10097;BME280;5087;42.662;23.466;2023-06-10T13:09:18;94696.31;;;25.53;82.00
10097;BME280;5087;42.662;23.466;2023-06-10T13:11:45;94694.34;;;25.53;82.51
10097;BME280;5087;42.662;23.466;2023-06-10T13:14:12;94699.25;;;25.25;85.73
10097;BME280;5087;42.662;23.466;2023-06-10T13:16:41;94703.28;;;25.24;85.12
10097;BME280;5087;42.662;23.466;2023-06-10T15:42:54;94750.53;;;21.91;100.00
10097;BME280;5087;42.662;23.466;2023-06-10T15:45:22;94732.75;;;21.28;100.00
10097;BME280;5087;42.662;23.466;2023-06-10T15:47:49;94755.50;;;21.47;100.00